Time;durP1;ratioP1;P1;durP2;ratioP2;P2;SDS_P1;SDS_P2;PMS_P1;PMS_P2;Temp;Humidity;BMP_temperature;BMP_pressure;BME280_temperature;BME280_humidity;BME280_pressure;Samples;Min_cycle;Max_cycle;Signal;HPM_P1;HPM_P2
2021/05/06 00:01:22;;;;;;;3.42;1.30;;;;;;;;;;5073289;28;20132;-76
2021/05/06 00:33:42;;;;;;;3.33;1.20;;;;;;;;;;5072875;28;20442;-76
2021/05/06 00:36:08;;;;;;;4.03;1.65;;;;;;;;;;5074444;28;20580;-76
2021/05/06 00:38:47;;;;;;;5.38;1.48;;;;;;;;;;5076852;28;20514;-75
2021/05/06 00:46:42;;;;;;;1.65;0.90;;;;;;;;;;5076632;28;20047;-76
2021/05/06 00:54:55;;;;;;;3.97;1.17;;;;;;;;;;5076540;28;20082;-76
2021/05/06 01:00:50;;;;;;;5.13;1.50;;;;;;;;;;5045240;28;20024;-76
2021/05/06 01:06:11;;;;;;;5.60;1.58;;;;;;;;;;5045035;28;20452;-76
2021/05/06 01:08:48;;;;;;;2.10;1.08;;;;;;;;;;5076096;28;20047;-76
2021/05/06 01:11:26;;;;;;;3.47;1.20;;;;;;;;;;5076115;28;20379;-76
2021/05/06 01:13:53;;;;;;;17.38;12.77;;;;;;;;;;5076074;28;20032;-77
2021/05/06 01:16:19;;;;;;;4.25;1.45;;;;;;;;;;5075824;28;20032;-77
2021/05/06 01:18:45;;;;;;;4.78;1.30;;;;;;;;;;5076217;28;20028;-76
2021/05/06 01:21:11;;;;;;;3.83;1.30;;;;;;;;;;5076043;28;20075;-77
2021/05/06 01:23:41;;;;;;;3.92;1.17;;;;;;;;;;5076123;28;20067;-76
2021/05/06 01:26:14;;;;;;;1.88;1.00;;;;;;;;;;5075950;28;20039;-76
2021/05/06 01:28:42;;;;;;;3.30;1.40;;;;;;;;;;5076031;28;20033;-76
2021/05/06 01:34:07;;;;;;;;;;;;;;;;;;5076274;28;20063;-76
2021/05/06 01:36:45;;;;;;;3.45;1.60;;;;;;;;;;5075565;28;19916;-76
2021/05/06 01:42:03;;;;;;;3.58;1.48;;;;;;;;;;5075628;28;20051;-76
2021/05/06 02:00:25;;;;;;;3.45;1.73;;;;;;;;;;5075267;28;20028;-78
2021/05/06 02:02:52;;;;;;;3.03;1.38;;;;;;;;;;5075226;28;20471;-76
2021/05/06 02:05:18;;;;;;;3.53;1.20;;;;;;;;;;5074950;28;20503;-76
2021/05/06 02:07:46;;;;;;;3.63;1.20;;;;;;;;;;5075265;28;20466;-77
2021/05/06 02:10:13;;;;;;;3.20;1.42;;;;;;;;;;5075287;28;20115;-78
2021/05/06 02:12:39;;;;;;;2.42;1.42;;;;;;;;;;5074946;28;20028;-78
2021/05/06 02:15:10;;;;;;;5.50;2.13;;;;;;;;;;5074980;28;20468;-76
2021/05/06 02:17:36;;;;;;;5.82;1.40;;;;;;;;;;5057034;28;20110;-76
2021/05/06 02:20:03;;;;;;;2.97;1.77;;;;;;;;;;5074877;28;20032;-77
2021/05/06 02:22:29;;;;;;;6.05;2.30;;;;;;;;;;5074857;28;20063;-77
2021/05/06 02:24:56;;;;;;;5.38;1.42;;;;;;;;;;5074700;28;20066;-76
2021/05/06 02:27:22;;;;;;;3.80;1.23;;;;;;;;;;5056889;28;20060;-77
2021/05/06 02:29:48;;;;;;;4.32;1.52;;;;;;;;;;5074905;28;20081;-76
2021/05/06 02:32:15;;;;;;;4.30;1.60;;;;;;;;;;5074672;28;20030;-77
2021/05/06 02:34:41;;;;;;;6.13;4.72;;;;;;;;;;5074666;28;20033;-76
2021/05/06 02:37:07;;;;;;;7.88;7.30;;;;;;;;;;5074316;28;20052;-77
2021/05/06 02:39:33;;;;;;;4.78;1.60;;;;;;;;;;5074569;28;20025;-77
2021/05/06 02:42:00;;;;;;;3.38;2.33;;;;;;;;;;5074487;28;20024;-76
2021/05/06 02:44:26;;;;;;;6.50;1.23;;;;;;;;;;5074252;28;20040;-77
2021/05/06 02:46:52;;;;;;;3.63;1.60;;;;;;;;;;5074400;28;20024;-77
2021/05/06 02:49:20;;;;;;;5.72;1.63;;;;;;;;;;5074440;28;20056;-77
2021/05/06 02:51:53;;;;;;;3.70;1.50;;;;;;;;;;5074395;28;20090;-76
2021/05/06 02:54:20;;;;;;;4.43;1.58;;;;;;;;;;5074203;28;20137;-77
2021/05/06 03:04:43;;;;;;;5.82;2.45;;;;;;;;;;5074321;28;20047;-77
2021/05/06 03:07:11;;;;;;;14.38;9.02;;;;;;;;;;5073981;28;20043;-77
2021/05/06 03:22:53;;;;;;;8.45;1.98;;;;;;;;;;5073708;28;20034;-77
2021/05/06 03:25:20;;;;;;;5.20;1.42;;;;;;;;;;5073497;28;20045;-78
2021/05/06 03:44:08;;;;;;;3.90;1.40;;;;;;;;;;5073580;28;20613;-80
2021/05/06 04:16:38;;;;;;;3.38;1.77;;;;;;;;;;5077265;28;20450;-78
2021/05/06 04:37:44;;;;;;;15.00;9.55;;;;;;;;;;5077113;28;20105;-77
2021/05/06 04:40:15;;;;;;;21.58;18.75;;;;;;;;;;5076995;28;20024;-76
2021/05/06 04:55:59;;;;;;;3.30;1.58;;;;;;;;;;5076869;28;20086;-76
2021/05/06 05:06:10;;;;;;;8.32;2.40;;;;;;;;;;5076197;28;20271;-76
2021/05/06 05:19:42;;;;;;;6.68;2.53;;;;;;;;;;5076132;28;20083;-77
2021/05/06 05:27:25;;;;;;;10.50;2.80;;;;;;;;;;5075070;28;20040;-76
2021/05/06 05:29:51;;;;;;;8.52;2.22;;;;;;;;;;5074145;28;20028;-78
2021/05/06 05:32:17;;;;;;;9.35;2.42;;;;;;;;;;5055848;28;20074;-76
2021/05/06 05:34:48;;;;;;;4.65;2.17;;;;;;;;;;5074072;28;20091;-76
2021/05/06 05:37:19;;;;;;;6.65;2.28;;;;;;;;;;5072761;28;20040;-77
2021/05/06 05:40:34;;;;;;;13.65;2.70;;;;;;;;;;5071851;28;20028;-77
2021/05/06 05:55:50;;;;;;;5.95;1.88;;;;;;;;;;5066570;28;20046;-77
2021/05/06 05:58:16;;;;;;;3.83;1.60;;;;;;;;;;5072502;28;20039;-77
2021/05/06 06:00:42;;;;;;;5.20;2.17;;;;;;;;;;5072177;28;20025;-77
2021/05/06 06:03:09;;;;;;;3.45;1.83;;;;;;;;;;5072181;28;20064;-77
2021/05/06 06:05:35;;;;;;;4.13;1.80;;;;;;;;;;5072525;28;20040;-77
2021/05/06 06:08:01;;;;;;;4.93;1.40;;;;;;;;;;5072954;28;20033;-77
2021/05/06 06:10:27;;;;;;;7.75;2.72;;;;;;;;;;5072848;28;20075;-78
2021/05/06 06:12:54;;;;;;;4.25;1.38;;;;;;;;;;5054388;28;20035;-78
2021/05/06 06:15:37;;;;;;;4.47;1.60;;;;;;;;;;5072676;28;20111;-76
2021/05/06 06:18:46;;;;;;;6.68;1.52;;;;;;;;;;5072623;28;20028;-78
2021/05/06 06:23:54;;;;;;;3.90;1.30;;;;;;;;;;5072352;28;20514;-77
2021/05/06 06:26:20;;;;;;;5.43;2.70;;;;;;;;;;5073790;28;20060;-78
2021/05/06 06:28:48;;;;;;;29.17;24.75;;;;;;;;;;5092387;28;20725;-79
2021/05/06 06:31:24;;;;;;;5.25;2.00;;;;;;;;;;5092377;28;20036;-77
2021/05/06 06:33:50;;;;;;;3.10;1.00;;;;;;;;;;5091324;28;20032;-78
2021/05/06 06:36:17;;;;;;;3.80;1.50;;;;;;;;;;5092355;28;20047;-77
2021/05/06 06:38:44;;;;;;;3.78;1.40;;;;;;;;;;5068285;28;20017;-76
2021/05/06 06:41:12;;;;;;;3.28;1.27;;;;;;;;;;5071948;28;20091;-77
2021/05/06 06:43:40;;;;;;;2.83;1.60;;;;;;;;;;5072085;28;20086;-77
2021/05/06 06:46:07;;;;;;;2.65;1.30;;;;;;;;;;5071827;28;20037;-78
2021/05/06 06:48:33;;;;;;;4.90;1.10;;;;;;;;;;5072122;28;20074;-78
2021/05/06 06:50:59;;;;;;;3.40;1.30;;;;;;;;;;5071720;28;20032;-77
2021/05/06 06:53:25;;;;;;;4.55;1.35;;;;;;;;;;5072079;28;20025;-77
2021/05/06 06:55:51;;;;;;;3.58;2.47;;;;;;;;;;5071440;28;20526;-78
2021/05/06 06:58:18;;;;;;;5.35;2.90;;;;;;;;;;5072042;28;20032;-77
2021/05/06 07:00:45;;;;;;;2.53;1.45;;;;;;;;;;5071862;28;20025;-76
2021/05/06 07:03:12;;;;;;;3.38;1.48;;;;;;;;;;5071675;28;20115;-76
2021/05/06 07:05:38;;;;;;;3.25;1.00;;;;;;;;;;5053546;28;20440;-77
2021/05/06 07:08:18;;;;;;;3.67;2.03;;;;;;;;;;5071589;28;20040;-78
2021/05/06 07:10:46;;;;;;;8.15;6.07;;;;;;;;;;5071344;28;20379;-77
2021/05/06 07:13:12;;;;;;;5.38;3.10;;;;;;;;;;5053092;28;20025;-78
2021/05/06 07:15:38;;;;;;;4.68;1.70;;;;;;;;;;5070049;28;20476;-77
2021/05/06 07:18:07;;;;;;;2.47;0.98;;;;;;;;;;5071059;28;20078;-79
2021/05/06 07:20:33;;;;;;;2.42;1.10;;;;;;;;;;5071037;28;20021;-78
2021/05/06 07:23:00;;;;;;;1.63;1.20;;;;;;;;;;5071156;28;20116;-77
2021/05/06 07:25:26;;;;;;;1.70;0.73;;;;;;;;;;5071423;28;20119;-77
2021/05/06 07:27:52;;;;;;;3.22;1.00;;;;;;;;;;5085612;28;20020;-78
2021/05/06 07:30:18;;;;;;;5.40;1.30;;;;;;;;;;5091477;28;20360;-78
2021/05/06 07:32:44;;;;;;;4.13;1.58;;;;;;;;;;5091523;28;20035;-78
2021/05/06 07:35:12;;;;;;;2.70;0.98;;;;;;;;;;5072968;28;20032;-77
2021/05/06 07:37:38;;;;;;;3.45;1.27;;;;;;;;;;5091425;28;20039;-78
2021/05/06 07:40:05;;;;;;;3.05;1.05;;;;;;;;;;5090965;28;20020;-78
2021/05/06 07:42:31;;;;;;;2.45;0.93;;;;;;;;;;5091412;28;20031;-78
2021/05/06 07:44:58;;;;;;;2.35;0.77;;;;;;;;;;5091186;28;20163;-77
2021/05/06 07:47:24;;;;;;;2.97;1.10;;;;;;;;;;5091168;28;20035;-76
2021/05/06 07:49:50;;;;;;;2.40;0.70;;;;;;;;;;5091701;28;20020;-77
2021/05/06 07:52:18;;;;;;;2.90;0.82;;;;;;;;;;5091194;28;20123;-77
2021/05/06 07:54:45;;;;;;;3.55;0.93;;;;;;;;;;5091089;28;20028;-78
2021/05/06 07:57:11;;;;;;;2.53;0.80;;;;;;;;;;5091025;28;20058;-77
2021/05/06 07:59:37;;;;;;;5.18;2.15;;;;;;;;;;5091116;28;20032;-77
2021/05/06 08:02:06;;;;;;;0.98;0.60;;;;;;;;;;5090959;28;20020;-78
2021/05/06 08:04:32;;;;;;;3.58;1.27;;;;;;;;;;5091333;28;20107;-77
2021/05/06 08:06:58;;;;;;;2.40;0.77;;;;;;;;;;5091042;28;20055;-77
2021/05/06 08:09:25;;;;;;;8.38;4.55;;;;;;;;;;5090788;28;20081;-76
2021/05/06 08:11:56;;;;;;;3.85;0.95;;;;;;;;;;5090973;28;20028;-83
2021/05/06 08:14:22;;;;;;;1.92;0.75;;;;;;;;;;5090436;28;20114;-80
2021/05/06 08:16:49;;;;;;;2.97;1.00;;;;;;;;;;5091315;28;20427;-79
2021/05/06 08:19:15;;;;;;;3.40;1.35;;;;;;;;;;5090991;28;20093;-78
2021/05/06 08:21:41;;;;;;;2.42;1.20;;;;;;;;;;5090560;28;20105;-78
2021/05/06 08:24:08;;;;;;;4.63;1.60;;;;;;;;;;5090300;28;20020;-79
2021/05/06 08:26:35;;;;;;;4.53;1.58;;;;;;;;;;5090346;28;20028;-83
2021/05/06 08:29:02;;;;;;;4.28;1.23;;;;;;;;;;5090656;28;20540;-80
2021/05/06 08:31:29;;;;;;;3.13;1.02;;;;;;;;;;5090300;28;20115;-78
2021/05/06 08:33:56;;;;;;;2.70;1.45;;;;;;;;;;5090641;28;20071;-80
2021/05/06 08:36:23;;;;;;;5.07;1.25;;;;;;;;;;5090345;28;20048;-78
2021/05/06 08:38:49;;;;;;;2.10;0.88;;;;;;;;;;5091129;28;20034;-81
2021/05/06 08:41:15;;;;;;;5.32;1.48;;;;;;;;;;5091185;28;20531;-81
2021/05/06 08:43:45;;;;;;;3.47;2.50;;;;;;;;;;5090801;28;20028;-78
2021/05/06 08:46:12;;;;;;;3.15;1.25;;;;;;;;;;5090877;28;20036;-78
2021/05/06 08:48:39;;;;;;;3.10;1.30;;;;;;;;;;5091025;28;20544;-79
2021/05/06 08:51:05;;;;;;;19.65;7.15;;;;;;;;;;5091154;28;20487;-79
2021/05/06 08:53:31;;;;;;;1.80;0.90;;;;;;;;;;5090900;28;20023;-77
2021/05/06 08:55:58;;;;;;;24.30;21.70;;;;;;;;;;5071781;28;20183;-78
2021/05/06 08:58:25;;;;;;;19.25;17.05;;;;;;;;;;5035350;28;20040;-79
2021/05/06 09:00:51;;;;;;;31.60;28.45;;;;;;;;;;5053819;28;20078;-79
2021/05/06 09:03:17;;;;;;;3.13;1.88;;;;;;;;;;5053282;28;20555;-79
2021/05/06 09:06:02;;;;;;;5.20;1.50;;;;;;;;;;5053640;28;20048;-77
2021/05/06 09:08:39;;;;;;;2.60;1.63;;;;;;;;;;5053118;28;20211;-77
2021/05/06 09:11:05;;;;;;;18.17;2.38;;;;;;;;;;5053944;28;20029;-77
2021/05/06 09:13:32;;;;;;;4.65;1.02;;;;;;;;;;5055321;28;20131;-77
2021/05/06 09:15:59;;;;;;;2.50;0.93;;;;;;;;;;5073826;28;20508;-78
2021/05/06 09:18:37;;;;;;;2.85;1.23;;;;;;;;;;5073439;28;20499;-79
2021/05/06 09:21:05;;;;;;;1.75;0.60;;;;;;;;;;5073721;28;20438;-77
2021/05/06 09:23:32;;;;;;;2.28;1.17;;;;;;;;;;5073180;28;20415;-76
2021/05/06 09:26:05;;;;;;;1.50;0.90;;;;;;;;;;5073492;28;20033;-77
2021/05/06 09:28:33;;;;;;;3.17;0.82;;;;;;;;;;5073035;28;20024;-77
2021/05/06 09:31:00;;;;;;;3.95;1.60;;;;;;;;;;5073666;28;20069;-79
2021/05/06 09:33:31;;;;;;;1.50;0.70;;;;;;;;;;5073037;28;20032;-78
2021/05/06 09:35:58;;;;;;;2.78;0.85;;;;;;;;;;5073361;28;20518;-76
2021/05/06 09:38:27;;;;;;;1.45;0.77;;;;;;;;;;5073097;28;20020;-77
2021/05/06 09:40:54;;;;;;;25.88;18.58;;;;;;;;;;5072413;28;20085;-76
2021/05/06 09:43:40;;;;;;;3.05;1.13;;;;;;;;;;5072319;28;20031;-77
2021/05/06 09:46:25;;;;;;;1.40;0.55;;;;;;;;;;5071107;28;20083;-76
2021/05/06 09:49:15;;;;;;;3.03;0.77;;;;;;;;;;5070979;28;20021;-76
2021/05/06 09:51:52;;;;;;;2.90;0.98;;;;;;;;;;5047121;28;20049;-76
2021/05/06 09:54:22;;;;;;;3.05;0.80;;;;;;;;;;5069803;28;20021;-78
2021/05/06 09:56:56;;;;;;;1.67;0.60;;;;;;;;;;5072749;28;20017;-78
2021/05/06 09:59:23;;;;;;;3.75;1.05;;;;;;;;;;5072966;28;20028;-79
2021/05/06 10:01:50;;;;;;;4.07;0.85;;;;;;;;;;5072626;28;20027;-78
2021/05/06 10:04:24;;;;;;;4.25;2.35;;;;;;;;;;5072802;28;20435;-78
2021/05/06 10:07:08;;;;;;;6.95;3.72;;;;;;;;;;5072519;28;20035;-80
2021/05/06 10:09:35;;;;;;;36.40;5.57;;;;;;;;;;5072496;28;20028;-79
2021/05/06 10:12:02;;;;;;;4.88;1.20;;;;;;;;;;5071091;28;20021;-77
2021/05/06 10:14:29;;;;;;;5.20;2.05;;;;;;;;;;5072183;28;20048;-78
2021/05/06 10:16:55;;;;;;;2.45;1.02;;;;;;;;;;5072652;28;20032;-78
2021/05/06 10:19:21;;;;;;;3.00;1.50;;;;;;;;;;5072228;28;20480;-79
2021/05/06 10:21:48;;;;;;;11.43;7.70;;;;;;;;;;5071378;28;20388;-79
2021/05/06 10:24:17;;;;;;;3.10;2.00;;;;;;;;;;5072386;28;20036;-79
2021/05/06 10:26:44;;;;;;;12.43;9.52;;;;;;;;;;5072170;28;20480;-78
2021/05/06 10:29:10;;;;;;;15.05;2.53;;;;;;;;;;5072004;28;20558;-80
2021/05/06 10:31:40;;;;;;;3.63;0.80;;;;;;;;;;5072032;28;20029;-79
2021/05/06 10:34:07;;;;;;;1.55;0.50;;;;;;;;;;5071906;28;20472;-78
2021/05/06 10:36:34;;;;;;;2.53;1.50;;;;;;;;;;5072004;28;20085;-78
2021/05/06 10:39:01;;;;;;;2.05;0.70;;;;;;;;;;5072389;28;20051;-78
2021/05/06 10:44:15;;;;;;;3.05;0.70;;;;;;;;;;5065654;28;20055;-80
2021/05/06 10:46:59;;;;;;;2.30;0.80;;;;;;;;;;5072037;28;20013;-79
2021/05/06 10:49:30;;;;;;;2.03;1.23;;;;;;;;;;5072115;28;20025;-79
2021/05/06 10:52:00;;;;;;;8.73;6.53;;;;;;;;;;5071710;28;20060;-79
2021/05/06 10:54:32;;;;;;;3.72;2.08;;;;;;;;;;5053595;28;20025;-79
2021/05/06 10:56:59;;;;;;;4.57;1.35;;;;;;;;;;5071655;28;20032;-79
2021/05/06 10:59:26;;;;;;;18.27;14.63;;;;;;;;;;5071835;28;20032;-78
2021/05/06 11:01:52;;;;;;;2.55;1.33;;;;;;;;;;5070956;28;20032;-79
2021/05/06 11:04:31;;;;;;;9.25;1.17;;;;;;;;;;5071392;28;20077;-79
2021/05/06 11:07:10;;;;;;;6.15;1.10;;;;;;;;;;5071592;28;20028;-79
2021/05/06 11:09:37;;;;;;;11.48;8.02;;;;;;;;;;5071617;28;20032;-79
2021/05/06 11:12:22;;;;;;;3.97;1.70;;;;;;;;;;5070956;28;20177;-79
2021/05/06 11:15:03;;;;;;;9.43;7.93;;;;;;;;;;5051572;28;20021;-78
2021/05/06 11:17:33;;;;;;;4.72;1.25;;;;;;;;;;5046137;28;20130;-79
2021/05/06 11:19:59;;;;;;;3.85;1.27;;;;;;;;;;5070538;28;20557;-78
2021/05/06 11:22:45;;;;;;;3.83;1.50;;;;;;;;;;5071262;28;20415;-79
2021/05/06 11:25:30;;;;;;;3.08;0.82;;;;;;;;;;5071371;28;20036;-78
2021/05/06 11:28:06;;;;;;;2.67;0.68;;;;;;;;;;5070824;28;20115;-77
2021/05/06 11:30:33;;;;;;;4.50;0.60;;;;;;;;;;5071374;28;20076;-78
2021/05/06 11:33:18;;;;;;;2.00;1.17;;;;;;;;;;5071299;28;20024;-78
2021/05/06 11:35:44;;;;;;;;;;;;;;;;;;5071259;28;20047;-79
2021/05/06 11:38:10;;;;;;;3.15;0.80;;;;;;;;;;5068352;28;19908;-78
2021/05/06 11:40:36;;;;;;;2.70;0.60;;;;;;;;;;5071091;28;20051;-79
2021/05/06 11:43:02;;;;;;;3.45;0.95;;;;;;;;;;5070147;28;20137;-77
2021/05/06 11:45:31;;;;;;;3.47;0.90;;;;;;;;;;5071152;28;20029;-77
2021/05/06 11:47:58;;;;;;;1.45;0.60;;;;;;;;;;5052441;28;20516;-79
2021/05/06 11:50:25;;;;;;;3.33;1.60;;;;;;;;;;5070487;28;20029;-78
2021/05/06 11:52:52;;;;;;;4.53;3.40;;;;;;;;;;5070454;28;20039;-79
2021/05/06 11:55:27;;;;;;;3.35;1.02;;;;;;;;;;5071016;28;20029;-77
2021/05/06 11:57:53;;;;;;;3.33;1.05;;;;;;;;;;5070618;28;20035;-78
2021/05/06 12:00:24;;;;;;;2.60;0.60;;;;;;;;;;5070992;28;20029;-77
2021/05/06 12:02:54;;;;;;;3.67;0.80;;;;;;;;;;5070790;28;20111;-77
2021/05/06 12:05:23;;;;;;;4.22;2.53;;;;;;;;;;5070587;28;20037;-76
2021/05/06 12:08:01;;;;;;;11.73;4.93;;;;;;;;;;5052597;28;20024;-78
2021/05/06 12:10:27;;;;;;;2.58;1.08;;;;;;;;;;5070471;28;20071;-79
2021/05/06 12:13:00;;;;;;;3.65;1.38;;;;;;;;;;5070619;28;20032;-76
2021/05/06 12:15:26;;;;;;;2.45;0.90;;;;;;;;;;5070889;28;20371;-78
2021/05/06 12:18:12;;;;;;;13.40;1.88;;;;;;;;;;5070417;28;20035;-78
2021/05/06 12:20:57;;;;;;;2.88;0.90;;;;;;;;;;5070711;28;20032;-77
2021/05/06 12:23:27;;;;;;;3.05;1.00;;;;;;;;;;5070965;28;20029;-77
2021/05/06 12:25:53;;;;;;;2.78;0.70;;;;;;;;;;5070513;28;20044;-77
2021/05/06 12:28:19;;;;;;;2.85;1.30;;;;;;;;;;5088347;28;20021;-77
2021/05/06 12:30:46;;;;;;;5.30;1.08;;;;;;;;;;5091009;28;20107;-77
2021/05/06 12:33:12;;;;;;;25.42;2.97;;;;;;;;;;5093859;28;20119;-77
2021/05/06 12:35:57;;;;;;;5.10;0.70;;;;;;;;;;5094730;28;20040;-77
2021/05/06 12:38:23;;;;;;;1.95;0.80;;;;;;;;;;5094433;28;20631;-78
2021/05/06 12:40:51;;;;;;;3.13;1.15;;;;;;;;;;5094931;28;20030;-78
2021/05/06 12:43:32;;;;;;;2.55;0.70;;;;;;;;;;5094143;28;20631;-78
2021/05/06 12:46:01;;;;;;;13.88;1.35;;;;;;;;;;5094621;28;20028;-78
2021/05/06 12:48:46;;;;;;;3.95;0.65;;;;;;;;;;5094563;28;20036;-80
2021/05/06 12:51:14;;;;;;;6.13;0.90;;;;;;;;;;5094034;28;20475;-77
2021/05/06 12:53:59;;;;;;;10.43;1.45;;;;;;;;;;5094551;28;20138;-77
2021/05/06 12:56:26;;;;;;;4.60;1.20;;;;;;;;;;5094689;28;20031;-78
2021/05/06 12:58:53;;;;;;;2.88;1.00;;;;;;;;;;5095783;28;20073;-78
2021/05/06 13:01:28;;;;;;;2.80;1.38;;;;;;;;;;5095442;28;20059;-78
2021/05/06 13:03:58;;;;;;;3.00;0.90;;;;;;;;;;5095556;28;20149;-77
2021/05/06 13:06:30;;;;;;;3.30;1.80;;;;;;;;;;5074302;28;20045;-79
2021/05/06 13:08:58;;;;;;;3.53;0.85;;;;;;;;;;5075190;28;20031;-77
2021/05/06 13:11:25;;;;;;;1.83;0.60;;;;;;;;;;5074507;28;20028;-79
2021/05/06 13:13:51;;;;;;;3.33;1.23;;;;;;;;;;5073965;28;20028;-77
2021/05/06 13:16:18;;;;;;;1.67;0.50;;;;;;;;;;5073861;28;20396;-77
2021/05/06 13:19:03;;;;;;;1.40;0.60;;;;;;;;;;5056521;28;20044;-80
2021/05/06 13:21:29;;;;;;;4.70;3.83;;;;;;;;;;5073247;28;20029;-78
2021/05/06 13:23:56;;;;;;;2.80;0.80;;;;;;;;;;5075016;28;20077;-78
2021/05/06 13:26:32;;;;;;;3.28;1.25;;;;;;;;;;5074305;28;20494;-78
2021/05/06 13:29:05;;;;;;;1.92;0.85;;;;;;;;;;5074753;28;20098;-77
2021/05/06 13:31:33;;;;;;;1.85;0.90;;;;;;;;;;5073140;28;20052;-77
2021/05/06 13:34:18;;;;;;;3.58;1.00;;;;;;;;;;5074629;28;20493;-78
2021/05/06 13:36:47;;;;;;;1.55;0.60;;;;;;;;;;5074157;28;20044;-79
2021/05/06 13:39:14;;;;;;;5.00;2.85;;;;;;;;;;5074014;28;20550;-78
2021/05/06 13:41:42;;;;;;;1.67;0.82;;;;;;;;;;5074111;28;20483;-78
2021/05/06 13:44:09;;;;;;;6.68;1.05;;;;;;;;;;5073629;28;20024;-79
2021/05/06 13:46:43;;;;;;;2.42;0.77;;;;;;;;;;5073672;28;20107;-78
2021/05/06 13:49:09;;;;;;;1.73;0.65;;;;;;;;;;5074125;28;20029;-78
2021/05/06 13:51:35;;;;;;;6.63;1.00;;;;;;;;;;5073671;28;20103;-78
2021/05/06 13:54:01;;;;;;;2.22;0.65;;;;;;;;;;5073985;28;20123;-78
2021/05/06 13:56:27;;;;;;;2.60;0.77;;;;;;;;;;5073752;28;20029;-77
2021/05/06 13:58:53;;;;;;;2.20;0.77;;;;;;;;;;5074073;28;20021;-77
2021/05/06 14:01:20;;;;;;;1.80;1.40;;;;;;;;;;5074126;28;20074;-77
2021/05/06 14:03:46;;;;;;;3.30;0.70;;;;;;;;;;5074229;28;20021;-77
2021/05/06 14:06:12;;;;;;;1.38;0.75;;;;;;;;;;5074354;28;20161;-77
2021/05/06 14:08:39;;;;;;;1.65;0.50;;;;;;;;;;5074194;28;20055;-77
2021/05/06 14:11:05;;;;;;;2.35;0.98;;;;;;;;;;5074031;28;20029;-77
2021/05/06 14:13:32;;;;;;;5.45;0.88;;;;;;;;;;5073682;28;20093;-76
2021/05/06 14:15:58;;;;;;;2.20;0.80;;;;;;;;;;5073901;28;20041;-77
2021/05/06 14:18:24;;;;;;;2.15;0.70;;;;;;;;;;5074035;28;20031;-77
2021/05/06 14:20:52;;;;;;;2.55;0.88;;;;;;;;;;5073751;28;20066;-76
2021/05/06 14:23:19;;;;;;;4.97;0.95;;;;;;;;;;5073264;28;20480;-76
2021/05/06 14:25:46;;;;;;;2.42;0.68;;;;;;;;;;5055693;28;20399;-77
2021/05/06 14:28:12;;;;;;;2.33;0.50;;;;;;;;;;5073345;28;20031;-77
2021/05/06 14:30:38;;;;;;;2.20;0.85;;;;;;;;;;5072746;28;20137;-77
2021/05/06 14:33:04;;;;;;;2.92;0.70;;;;;;;;;;5073804;28;20472;-77
2021/05/06 14:35:31;;;;;;;2.50;0.82;;;;;;;;;;5070889;28;20048;-78
2021/05/06 14:37:57;;;;;;;3.38;1.30;;;;;;;;;;5072233;28;20052;-77
2021/05/06 14:40:24;;;;;;;1.48;0.70;;;;;;;;;;5072068;28;20031;-77
2021/05/06 14:42:50;;;;;;;2.25;0.70;;;;;;;;;;5072698;28;20025;-77
2021/05/06 14:45:16;;;;;;;3.15;1.42;;;;;;;;;;5072813;28;20490;-79
2021/05/06 14:47:43;;;;;;;3.42;1.75;;;;;;;;;;5072914;28;20028;-76
2021/05/06 14:50:10;;;;;;;4.35;2.20;;;;;;;;;;5072811;28;20040;-79
2021/05/06 14:52:37;;;;;;;4.82;3.05;;;;;;;;;;5071897;28;20055;-78
2021/05/06 14:55:04;;;;;;;2.70;1.05;;;;;;;;;;5072010;28;20059;-78
2021/05/06 14:57:30;;;;;;;1.25;0.60;;;;;;;;;;5072957;28;20051;-78
2021/05/06 14:59:56;;;;;;;2.78;0.60;;;;;;;;;;5072993;28;20134;-78
2021/05/06 15:02:22;;;;;;;2.65;0.60;;;;;;;;;;5072865;28;20082;-78
2021/05/06 15:04:48;;;;;;;1.75;0.52;;;;;;;;;;5071775;28;20098;-77
2021/05/06 15:07:14;;;;;;;4.95;1.08;;;;;;;;;;5072970;28;20056;-77
2021/05/06 15:09:41;;;;;;;5.22;1.08;;;;;;;;;;5072806;28;20059;-77
2021/05/06 15:12:07;;;;;;;5.47;0.90;;;;;;;;;;5072164;28;20028;-78
2021/05/06 15:14:34;;;;;;;2.63;0.80;;;;;;;;;;5071351;28;20502;-78
2021/05/06 15:17:00;;;;;;;4.38;0.88;;;;;;;;;;5072628;28;20064;-78
2021/05/06 15:19:26;;;;;;;2.10;0.70;;;;;;;;;;5072871;28;20447;-77
2021/05/06 15:21:52;;;;;;;2.08;0.80;;;;;;;;;;5072603;28;20028;-78
2021/05/06 15:24:18;;;;;;;3.10;0.80;;;;;;;;;;5072356;28;20032;-77
2021/05/06 15:26:44;;;;;;;2.90;0.52;;;;;;;;;;5072263;28;20024;-77
2021/05/06 15:29:10;;;;;;;2.15;0.60;;;;;;;;;;5072888;28;20031;-77
2021/05/06 15:31:37;;;;;;;1.23;0.60;;;;;;;;;;5072738;28;20472;-77
2021/05/06 15:34:04;;;;;;;2.10;0.70;;;;;;;;;;5071837;28;20032;-77
2021/05/06 15:36:30;;;;;;;1.98;0.73;;;;;;;;;;5072360;28;20075;-77
2021/05/06 15:38:57;;;;;;;2.83;0.90;;;;;;;;;;5071945;28;20073;-77
2021/05/06 15:41:23;;;;;;;1.27;0.80;;;;;;;;;;5072572;28;20024;-77
2021/05/06 15:43:49;;;;;;;1.83;0.90;;;;;;;;;;5072354;28;20383;-77
2021/05/06 15:46:16;;;;;;;2.88;1.08;;;;;;;;;;5072440;28;20424;-76
2021/05/06 15:48:43;;;;;;;1.55;0.63;;;;;;;;;;5072473;28;20032;-77
2021/05/06 15:51:09;;;;;;;2.80;0.80;;;;;;;;;;5072261;28;20028;-78
2021/05/06 15:53:35;;;;;;;3.30;1.27;;;;;;;;;;5072535;28;20024;-77
2021/05/06 15:56:01;;;;;;;3.92;1.00;;;;;;;;;;5072059;28;20024;-77
2021/05/06 15:58:28;;;;;;;2.00;0.63;;;;;;;;;;5072323;28;20064;-77
2021/05/06 16:00:56;;;;;;;4.40;0.80;;;;;;;;;;5072170;28;20029;-78
2021/05/06 16:03:24;;;;;;;3.47;0.70;;;;;;;;;;5072420;28;20070;-78
2021/05/06 16:05:53;;;;;;;3.72;1.15;;;;;;;;;;5072152;28;20045;-78
2021/05/06 16:08:20;;;;;;;3.55;0.73;;;;;;;;;;5072420;28;20071;-77
2021/05/06 16:10:46;;;;;;;40.40;4.28;;;;;;;;;;5072408;28;20020;-78
2021/05/06 16:13:13;;;;;;;3.83;0.82;;;;;;;;;;5071985;28;20491;-77
2021/05/06 16:15:39;;;;;;;2.80;1.20;;;;;;;;;;5072111;28;20482;-77
2021/05/06 16:18:05;;;;;;;2.92;1.65;;;;;;;;;;5071949;28;20028;-78
2021/05/06 16:20:33;;;;;;;11.65;2.38;;;;;;;;;;5072300;28;20039;-78
2021/05/06 16:22:59;;;;;;;4.78;1.02;;;;;;;;;;5071879;28;20043;-78
2021/05/06 16:25:26;;;;;;;3.00;0.65;;;;;;;;;;5071755;28;20036;-77
2021/05/06 16:27:52;;;;;;;3.30;1.25;;;;;;;;;;5071795;28;20032;-77
2021/05/06 16:30:19;;;;;;;1.58;0.75;;;;;;;;;;5072015;28;20349;-78
2021/05/06 16:32:46;;;;;;;4.18;0.75;;;;;;;;;;5072028;28;20434;-78
2021/05/06 16:35:21;;;;;;;2.70;0.90;;;;;;;;;;5071557;28;20043;-79
2021/05/06 16:37:54;;;;;;;3.00;0.80;;;;;;;;;;5071944;28;20113;-79
2021/05/06 16:45:44;;;;;;;2.63;0.70;;;;;;;;;;5072026;28;20365;-78
2021/05/06 16:48:11;;;;;;;2.97;0.85;;;;;;;;;;5071587;28;20539;-78
2021/05/06 16:50:37;;;;;;;3.22;0.80;;;;;;;;;;5071924;28;20110;-78
2021/05/06 16:53:04;;;;;;;1.65;0.68;;;;;;;;;;5070501;28;20052;-78
2021/05/06 16:55:30;;;;;;;2.97;0.60;;;;;;;;;;5071828;28;20036;-78
2021/05/06 16:57:56;;;;;;;2.67;0.90;;;;;;;;;;5071672;28;20052;-78
2021/05/06 17:00:22;;;;;;;3.63;1.00;;;;;;;;;;5071726;28;20095;-78
2021/05/06 17:02:52;;;;;;;3.95;0.68;;;;;;;;;;5071617;28;20024;-78
2021/05/06 17:05:18;;;;;;;5.38;0.80;;;;;;;;;;5071504;28;20051;-77
2021/05/06 17:07:45;;;;;;;7.38;1.17;;;;;;;;;;5071788;28;20054;-77
2021/05/06 17:10:14;;;;;;;5.07;0.90;;;;;;;;;;5071270;28;20024;-77
2021/05/06 17:12:40;;;;;;;5.13;0.90;;;;;;;;;;5071672;28;20496;-78
2021/05/06 17:15:08;;;;;;;12.57;8.52;;;;;;;;;;5071260;28;20400;-78
2021/05/06 17:17:34;;;;;;;5.70;1.80;;;;;;;;;;5072243;28;20115;-78
2021/05/06 17:20:01;;;;;;;6.55;2.97;;;;;;;;;;5075198;28;20111;-78
2021/05/06 17:22:28;;;;;;;6.93;1.73;;;;;;;;;;5074499;28;20112;-78
2021/05/06 17:24:54;;;;;;;6.30;1.50;;;;;;;;;;5074262;28;20044;-78
2021/05/06 17:27:20;;;;;;;4.80;2.17;;;;;;;;;;5074600;28;20032;-78
2021/05/06 17:29:48;;;;;;;12.15;2.17;;;;;;;;;;5075104;28;20021;-78
2021/05/06 17:32:17;;;;;;;10.18;2.70;;;;;;;;;;5074922;28;20037;-78
2021/05/06 17:34:43;;;;;;;7.70;1.90;;;;;;;;;;5074857;28;20028;-79
2021/05/06 17:37:09;;;;;;;10.50;1.90;;;;;;;;;;5074826;28;20048;-78
2021/05/06 17:39:35;;;;;;;4.68;1.15;;;;;;;;;;5075011;28;20581;-79
2021/05/06 17:42:02;;;;;;;6.30;1.50;;;;;;;;;;5073725;28;20070;-79
2021/05/06 17:44:28;;;;;;;4.82;1.17;;;;;;;;;;5073065;28;20114;-79
2021/05/06 17:47:03;;;;;;;6.55;1.45;;;;;;;;;;5073571;28;20025;-78
2021/05/06 17:49:29;;;;;;;5.40;1.27;;;;;;;;;;5070702;28;20465;-78
2021/05/06 17:51:56;;;;;;;8.45;1.30;;;;;;;;;;5074907;28;20028;-79
2021/05/06 17:54:23;;;;;;;11.68;1.70;;;;;;;;;;5074156;28;20028;-78
2021/05/06 17:56:49;;;;;;;6.90;1.33;;;;;;;;;;5075371;28;20095;-79
2021/05/06 17:59:15;;;;;;;7.38;1.10;;;;;;;;;;5075542;28;20039;-79
2021/05/06 18:01:41;;;;;;;5.78;1.98;;;;;;;;;;5075337;28;20074;-79
2021/05/06 18:04:07;;;;;;;8.07;1.92;;;;;;;;;;5075076;28;20048;-78
2021/05/06 18:06:33;;;;;;;7.35;1.50;;;;;;;;;;5075369;28;20568;-78
2021/05/06 18:08:59;;;;;;;8.05;1.73;;;;;;;;;;5075529;28;20020;-79
2021/05/06 18:13:52;;;;;;;6.38;1.77;;;;;;;;;;5075079;28;20391;-78
2021/05/06 18:16:18;;;;;;;23.48;4.38;;;;;;;;;;5075196;28;20035;-79
2021/05/06 18:18:44;;;;;;;11.88;5.85;;;;;;;;;;5075147;28;20033;-79
2021/05/06 18:21:10;;;;;;;18.80;8.88;;;;;;;;;;5075200;28;20115;-79
2021/05/06 18:23:37;;;;;;;13.43;8.35;;;;;;;;;;5074548;28;20052;-79
2021/05/06 18:26:03;;;;;;;13.48;6.00;;;;;;;;;;5075045;28;20483;-79
2021/05/06 18:28:29;;;;;;;11.32;4.60;;;;;;;;;;5074790;28;20028;-78
2021/05/06 18:30:55;;;;;;;10.52;4.43;;;;;;;;;;5074304;28;20506;-79